createdAt,value
2022-12-10T00:01:17.748Z,1.52
2022-12-10T00:03:45.711Z,1.44
2022-12-10T00:06:15.207Z,1.42
2022-12-10T00:08:41.997Z,1.37
2022-12-10T00:11:12.666Z,1.48
2022-12-10T00:13:39.910Z,1.45
2022-12-10T00:16:09.560Z,1.47
2022-12-10T00:18:37.689Z,1.45
2022-12-10T00:21:09.862Z,1.43
2022-12-10T00:23:37.508Z,1.45
2022-12-10T00:26:08.618Z,1.47
2022-12-10T00:28:35.493Z,1.51
2022-12-10T00:31:15.345Z,1.41
2022-12-10T00:33:43.058Z,1.36
2022-12-10T00:36:17.665Z,1.49
2022-12-10T00:38:45.347Z,1.53
2022-12-10T00:41:13.282Z,1.44
2022-12-10T00:43:41.094Z,1.38
2022-12-10T00:46:08.244Z,1.44
2022-12-10T00:48:35.539Z,1.35
2022-12-10T00:51:23.099Z,1.46
2022-12-10T00:53:51.322Z,1.36
2022-12-10T00:56:21.062Z,1.46
2022-12-10T00:58:48.404Z,1.50
2022-12-10T01:01:27.028Z,1.48
2022-12-10T01:03:57.368Z,1.24
2022-12-10T01:06:29.850Z,1.32
2022-12-10T01:08:59.572Z,1.44
2022-12-10T01:11:30.199Z,1.35
2022-12-10T01:13:56.958Z,1.41
2022-12-10T01:16:27.487Z,1.22
2022-12-10T01:18:55.966Z,1.28
2022-12-10T01:21:22.987Z,1.35
2022-12-10T01:23:50.877Z,1.38
2022-12-10T01:26:21.211Z,1.41
2022-12-10T01:28:48.788Z,1.32
2022-12-10T01:31:24.350Z,1.40
2022-12-10T01:33:51.838Z,1.38
2022-12-10T01:36:42.313Z,1.31
2022-12-10T01:39:31.133Z,1.41
2022-12-10T01:42:18.947Z,1.46
2022-12-10T01:45:11.130Z,1.35
2022-12-10T01:47:57.908Z,1.21
2022-12-10T01:50:45.205Z,1.40
2022-12-10T01:53:13.281Z,1.38
2022-12-10T01:55:51.905Z,1.33
2022-12-10T01:58:20.311Z,1.23
2022-12-10T02:01:08.108Z,1.22
2022-12-10T02:04:06.239Z,1.18
2022-12-10T02:06:45.030Z,1.14
2022-12-10T02:09:36.627Z,1.14
2022-12-10T02:12:17.101Z,1.23
2022-12-10T02:15:11.167Z,1.19
2022-12-10T02:18:00.605Z,0.98
2022-12-10T02:20:35.091Z,1.07
2022-12-10T02:23:17.867Z,1.05
2022-12-10T02:26:05.863Z,0.98
2022-12-10T02:29:11.546Z,0.92
2022-12-10T02:31:42.696Z,1.07
2022-12-10T02:34:12.050Z,1.06
2022-12-10T02:36:43.740Z,1.15
2022-12-10T02:39:17.941Z,1.22
2022-12-10T02:41:54.128Z,1.23
2022-12-10T02:44:22.747Z,1.27
2022-12-10T02:46:52.810Z,1.28
2022-12-10T02:49:24.524Z,1.29
2022-12-10T02:51:51.273Z,1.25
2022-12-10T02:54:48.299Z,1.32
2022-12-10T02:57:37.392Z,1.33
2022-12-10T03:00:21.033Z,1.36
2022-12-10T03:03:15.140Z,1.30
2022-12-10T03:05:57.608Z,1.24
2022-12-10T03:09:00.560Z,1.24
2022-12-10T03:11:27.386Z,1.10
2022-12-10T03:14:04.990Z,1.07
2022-12-10T03:16:49.232Z,1.13
2022-12-10T03:19:21.281Z,1.09
2022-12-10T03:21:51.773Z,1.17
2022-12-10T03:24:19.987Z,1.18
2022-12-10T03:26:48.984Z,1.21
2022-12-10T03:29:23.099Z,1.15
2022-12-10T03:31:51.965Z,1.12
2022-12-10T03:34:18.816Z,1.23
2022-12-10T03:36:46.378Z,1.02
2022-12-10T03:39:14.159Z,0.83
2022-12-10T03:41:40.586Z,0.84
2022-12-10T03:44:07.875Z,0.83
2022-12-10T03:46:34.461Z,0.77
2022-12-10T03:49:02.363Z,0.73
2022-12-10T03:51:29.863Z,0.87
2022-12-10T03:53:57.438Z,0.77
2022-12-10T03:56:24.237Z,0.84
2022-12-10T03:58:50.769Z,0.76
2022-12-10T04:01:17.587Z,0.74
2022-12-10T04:03:45.147Z,0.51
2022-12-10T04:06:16.359Z,0.62
2022-12-10T04:08:42.873Z,0.69
2022-12-10T04:11:11.492Z,0.79
2022-12-10T04:13:57.618Z,0.59
2022-12-10T04:16:28.037Z,0.59
2022-12-10T04:19:00.733Z,0.69
2022-12-10T04:21:48.726Z,0.55
2022-12-10T04:24:34.883Z,0.59
2022-12-10T04:27:07.878Z,0.68
2022-12-10T04:29:34.347Z,0.61
2022-12-10T04:32:01.457Z,0.67
2022-12-10T04:34:28.212Z,0.60
2022-12-10T04:36:54.894Z,0.63
2022-12-10T04:39:21.364Z,0.68
2022-12-10T04:41:49.704Z,0.52
2022-12-10T04:44:16.564Z,0.62
2022-12-10T04:46:43.326Z,0.59
2022-12-10T04:49:10.506Z,0.45
2022-12-10T04:51:37.416Z,0.43
2022-12-10T04:54:04.859Z,0.42
2022-12-10T04:56:31.361Z,0.49
2022-12-10T04:58:58.797Z,0.41
2022-12-10T05:01:26.121Z,0.44
2022-12-10T05:03:53.045Z,0.50
2022-12-10T05:06:20.887Z,0.40
2022-12-10T05:08:48.266Z,0.31
2022-12-10T05:11:18.105Z,0.37
2022-12-10T05:13:44.938Z,0.39
2022-12-10T05:16:13.907Z,0.41
2022-12-10T05:18:40.664Z,0.42
2022-12-10T05:21:11.643Z,0.42
2022-12-10T05:23:40.002Z,0.49
2022-12-10T05:26:12.382Z,0.46
2022-12-10T05:28:52.029Z,0.48
2022-12-10T05:31:26.847Z,0.36
2022-12-10T05:33:54.792Z,0.38
2022-12-10T05:36:24.922Z,0.46
2022-12-10T05:38:53.605Z,0.43
2022-12-10T05:41:22.588Z,0.41
2022-12-10T05:43:50.081Z,0.30
2022-12-10T05:46:19.883Z,0.42
2022-12-10T05:48:47.351Z,0.40
2022-12-10T05:51:17.091Z,0.43
2022-12-10T05:53:44.544Z,0.36
2022-12-10T05:56:14.509Z,0.45
2022-12-10T05:58:43.334Z,0.54
2022-12-10T06:01:16.028Z,0.53
2022-12-10T06:03:43.750Z,0.43
2022-12-10T06:06:10.588Z,0.40
2022-12-10T06:08:39.253Z,0.45
2022-12-10T06:11:10.910Z,0.52
2022-12-10T06:13:38.242Z,0.48
2022-12-10T06:16:12.554Z,0.46
2022-12-10T06:18:39.121Z,0.45
2022-12-10T06:21:10.951Z,0.54
2022-12-10T06:23:39.283Z,0.46
2022-12-10T06:26:17.138Z,0.47
2022-12-10T06:28:48.259Z,0.52
2022-12-10T06:31:16.229Z,0.53
2022-12-10T06:33:43.842Z,0.51
2022-12-10T06:36:12.253Z,0.58
2022-12-10T06:38:39.885Z,0.55
2022-12-10T06:41:08.779Z,0.64
2022-12-10T06:43:36.070Z,0.61
2022-12-10T06:46:08.217Z,0.45
2022-12-10T06:48:35.829Z,0.48
2022-12-10T06:51:02.974Z,0.34
2022-12-10T06:53:30.321Z,0.50
2022-12-10T06:56:00.022Z,0.56
2022-12-10T06:58:29.654Z,0.50
2022-12-10T07:01:04.122Z,0.60
2022-12-10T07:03:31.118Z,0.70
2022-12-10T07:05:59.499Z,0.42
2022-12-10T07:08:25.972Z,0.36
2022-12-10T07:10:53.310Z,0.58
2022-12-10T07:13:28.445Z,0.44
2022-12-10T07:15:57.900Z,0.37
2022-12-10T07:18:24.590Z,0.37
2022-12-10T07:20:51.035Z,0.41
2022-12-10T07:23:17.822Z,0.49
2022-12-10T07:25:44.270Z,0.42
2022-12-10T07:28:10.948Z,0.45
2022-12-10T07:30:37.466Z,0.46
2022-12-10T07:33:04.016Z,0.34
2022-12-10T07:35:30.770Z,0.35
2022-12-10T07:37:57.490Z,0.45
2022-12-10T07:40:24.581Z,0.45
2022-12-10T07:42:51.080Z,0.44
2022-12-10T07:45:17.912Z,0.51
2022-12-10T07:47:44.417Z,0.54
2022-12-10T07:50:11.259Z,0.52
2022-12-10T07:52:38.154Z,0.50
2022-12-10T07:55:05.208Z,0.50
2022-12-10T07:57:33.036Z,0.52
2022-12-10T07:59:59.972Z,0.59
2022-12-10T08:02:26.445Z,0.66
2022-12-10T08:04:52.975Z,0.56
2022-12-10T08:07:19.363Z,0.48
2022-12-10T08:09:46.038Z,0.44
2022-12-10T08:12:12.509Z,0.58
2022-12-10T08:14:38.971Z,0.60
2022-12-10T08:17:05.755Z,0.39
2022-12-10T08:19:32.223Z,0.54
2022-12-10T08:21:58.820Z,0.70
2022-12-10T08:24:25.232Z,0.55
2022-12-10T08:26:51.716Z,0.61
2022-12-10T08:29:18.461Z,0.65
2022-12-10T08:31:45.068Z,0.64
2022-12-10T08:34:17.494Z,0.65
2022-12-10T08:36:45.504Z,0.51
2022-12-10T08:39:17.410Z,0.55
2022-12-10T08:41:47.429Z,0.67
2022-12-10T08:44:14.887Z,0.67
2022-12-10T08:46:41.432Z,0.64
2022-12-10T08:49:08.145Z,0.65
2022-12-10T08:51:34.661Z,0.74
2022-12-10T08:54:01.205Z,0.83
2022-12-10T08:56:28.104Z,0.80
2022-12-10T08:58:55.025Z,0.67
2022-12-10T09:01:22.201Z,0.61
2022-12-10T09:03:48.785Z,0.72
2022-12-10T09:06:18.247Z,0.81
2022-12-10T09:08:45.055Z,0.91
2022-12-10T09:11:19.406Z,0.99
2022-12-10T09:13:45.908Z,1.09
2022-12-10T09:16:12.982Z,0.92
2022-12-10T09:18:40.278Z,1.01
2022-12-10T09:21:08.485Z,1.14
2022-12-10T09:23:35.431Z,1.11
2022-12-10T09:26:02.393Z,1.20
2022-12-10T09:28:28.872Z,1.21
2022-12-10T09:30:57.924Z,1.21
2022-12-10T09:33:25.223Z,1.14
2022-12-10T09:35:51.852Z,1.15
2022-12-10T09:38:19.076Z,1.09
2022-12-10T09:41:05.256Z,0.88
2022-12-10T09:43:48.522Z,1.06
2022-12-10T09:46:26.503Z,1.11
2022-12-10T09:49:13.458Z,1.36
2022-12-10T09:51:40.101Z,1.48
2022-12-10T09:54:26.583Z,1.61
2022-12-10T09:56:56.522Z,1.86
2022-12-10T09:59:30.715Z,1.93
2022-12-10T10:02:03.599Z,2.02
2022-12-10T10:04:30.501Z,2.46
2022-12-10T10:06:57.569Z,2.27
2022-12-10T10:09:25.060Z,2.71
2022-12-10T10:11:51.827Z,2.54
2022-12-10T10:14:28.387Z,2.65
2022-12-10T10:17:12.517Z,2.85
2022-12-10T10:19:40.489Z,2.91
2022-12-10T10:22:09.370Z,2.90
2022-12-10T10:24:46.412Z,2.95
2022-12-10T10:27:16.272Z,2.73
2022-12-10T10:29:50.872Z,2.75
2022-12-10T10:32:27.214Z,2.64
2022-12-10T10:35:00.048Z,2.50
2022-12-10T10:37:30.217Z,2.61
2022-12-10T10:39:57.742Z,2.49
2022-12-10T10:42:40.246Z,2.55
2022-12-10T10:45:35.398Z,2.56
2022-12-10T10:48:22.154Z,2.81
2022-12-10T10:50:55.899Z,2.79
2022-12-10T10:53:46.788Z,2.63
2022-12-10T10:56:30.350Z,2.46
2022-12-10T10:59:01.510Z,2.63
2022-12-10T11:02:00.144Z,2.64
2022-12-10T11:04:37.250Z,2.84
2022-12-10T11:07:13.507Z,2.88
2022-12-10T11:09:40.560Z,2.68
2022-12-10T11:12:27.150Z,2.49
2022-12-10T11:14:54.072Z,2.45
2022-12-10T11:17:24.650Z,2.77
2022-12-10T11:20:16.383Z,2.86
2022-12-10T11:22:57.207Z,2.87
2022-12-10T11:25:32.109Z,2.43
2022-12-10T11:28:18.897Z,2.23
2022-12-10T11:30:59.735Z,2.40
2022-12-10T11:33:48.274Z,2.58
2022-12-10T11:36:26.865Z,2.61
2022-12-10T11:39:21.852Z,2.83
2022-12-10T11:42:01.810Z,2.84
2022-12-10T11:44:43.977Z,2.85
2022-12-10T11:47:30.142Z,2.70
2022-12-10T11:50:21.889Z,2.69
2022-12-10T11:53:15.641Z,2.53
2022-12-10T11:55:59.386Z,2.57
2022-12-10T11:58:46.268Z,2.73
2022-12-10T12:01:31.556Z,2.70
2022-12-10T12:04:24.006Z,2.90
2022-12-10T12:09:56.823Z,2.88
2022-12-10T12:12:56.002Z,3.15
2022-12-10T12:15:39.968Z,3.10
2022-12-10T12:18:23.373Z,3.00
2022-12-10T12:20:59.342Z,3.21
2022-12-10T12:23:47.660Z,3.23
2022-12-10T12:26:20.484Z,3.20
2022-12-10T12:28:55.230Z,3.17
2022-12-10T12:31:30.579Z,3.31
2022-12-10T12:34:30.083Z,3.24
2022-12-10T12:36:56.656Z,3.31
2022-12-10T12:39:53.119Z,3.30
2022-12-10T12:42:37.603Z,3.31
2022-12-10T12:45:11.400Z,2.97
2022-12-10T12:47:46.842Z,3.09
2022-12-10T12:50:49.310Z,2.93
2022-12-10T12:53:19.276Z,3.05
2022-12-10T12:55:49.513Z,3.05
2022-12-10T12:58:34.986Z,3.20
2022-12-10T13:01:27.397Z,3.43
2022-12-10T13:03:56.611Z,3.12
2022-12-10T13:06:32.291Z,3.00
2022-12-10T13:09:27.653Z,2.87
2022-12-10T13:12:03.485Z,3.09
2022-12-10T13:14:31.846Z,2.92
2022-12-10T13:17:35.091Z,2.64
2022-12-10T13:20:34.602Z,2.92
2022-12-10T13:23:25.330Z,3.05
2022-12-10T13:25:54.297Z,2.68
2022-12-10T13:28:28.739Z,2.56
2022-12-10T13:31:15.742Z,2.65
2022-12-10T13:34:09.431Z,2.66
2022-12-10T13:36:51.684Z,2.77
2022-12-10T13:39:43.034Z,2.77
2022-12-10T13:42:28.491Z,2.55
2022-12-10T13:45:24.405Z,2.36
2022-12-10T13:48:15.266Z,2.38
2022-12-10T13:51:03.182Z,2.44
2022-12-10T13:53:48.624Z,2.54
2022-12-10T13:56:22.733Z,2.67
2022-12-10T13:58:56.108Z,2.75
2022-12-10T14:01:48.289Z,2.60
2022-12-10T14:04:27.369Z,2.53
2022-12-10T14:06:54.907Z,2.45
2022-12-10T14:09:27.186Z,2.62
2022-12-10T14:11:58.627Z,2.40
2022-12-10T14:14:39.933Z,2.51
2022-12-10T14:17:20.221Z,2.64
2022-12-10T14:19:50.345Z,2.56
2022-12-10T14:22:21.335Z,2.65
2022-12-10T14:24:50.878Z,2.67
2022-12-10T14:27:26.007Z,2.38
2022-12-10T14:30:07.512Z,2.41
2022-12-10T14:32:39.469Z,2.44
2022-12-10T14:35:12.119Z,2.59
2022-12-10T14:37:43.060Z,2.35
2022-12-10T14:40:11.035Z,2.53
2022-12-10T14:42:41.011Z,2.36
2022-12-10T14:45:08.796Z,2.29
2022-12-10T14:47:46.832Z,2.36
2022-12-10T14:50:17.431Z,2.34
2022-12-10T14:52:46.671Z,2.25
2022-12-10T14:55:20.675Z,2.29
2022-12-10T14:57:57.998Z,2.28
2022-12-10T15:00:24.920Z,2.27
2022-12-10T15:02:57.269Z,2.18
2022-12-10T15:05:28.177Z,2.33
2022-12-10T15:08:03.825Z,2.26
2022-12-10T15:10:37.509Z,2.16
2022-12-10T15:13:06.133Z,2.27
2022-12-10T15:15:38.897Z,2.11
2022-12-10T15:18:08.959Z,2.15
2022-12-10T15:20:48.484Z,2.27
2022-12-10T15:23:29.530Z,2.30
2022-12-10T15:26:04.479Z,2.16
2022-12-10T15:28:34.126Z,1.98
2022-12-10T15:31:25.808Z,2.02
2022-12-10T15:33:55.497Z,2.08
2022-12-10T15:36:36.128Z,1.96
2022-12-10T15:39:12.008Z,2.00
2022-12-10T15:41:43.014Z,2.06
2022-12-10T15:44:41.112Z,2.05
2022-12-10T15:47:17.395Z,2.08
2022-12-10T15:49:44.899Z,1.96
2022-12-10T15:52:20.982Z,1.80
2022-12-10T15:54:49.818Z,1.90
2022-12-10T15:57:30.969Z,1.86
2022-12-10T16:00:00.392Z,1.82
2022-12-10T16:02:45.707Z,1.78
2022-12-10T16:05:18.344Z,1.78
2022-12-10T16:07:47.544Z,1.75
2022-12-10T16:10:17.410Z,1.76
2022-12-10T16:12:48.532Z,1.51
2022-12-10T16:15:22.237Z,1.43
2022-12-10T16:17:48.995Z,1.30
2022-12-10T16:20:20.271Z,1.22
2022-12-10T16:22:48.301Z,1.17
2022-12-10T16:25:15.844Z,1.16
2022-12-10T16:27:43.830Z,1.18
2022-12-10T16:30:47.893Z,1.18
2022-12-10T16:33:15.529Z,1.11
2022-12-10T16:35:43.461Z,1.09
2022-12-10T16:38:11.254Z,1.10
2022-12-10T16:40:39.571Z,1.07
2022-12-10T16:43:07.950Z,1.06
2022-12-10T16:45:39.609Z,1.09
2022-12-10T16:48:07.062Z,1.11
2022-12-10T16:50:34.282Z,1.03
2022-12-10T16:53:08.341Z,0.98
2022-12-10T16:55:35.057Z,0.92
2022-12-10T16:58:02.356Z,0.72
2022-12-10T17:00:29.130Z,0.80
2022-12-10T17:02:56.249Z,0.89
2022-12-10T17:05:32.717Z,0.80
2022-12-10T17:07:59.361Z,0.84
2022-12-10T17:10:45.186Z,0.84
2022-12-10T17:13:13.448Z,0.92
2022-12-10T17:15:40.857Z,0.89
2022-12-10T17:18:14.139Z,0.83
2022-12-10T17:20:40.658Z,0.80
2022-12-10T17:23:07.532Z,0.83
2022-12-10T17:25:34.840Z,0.87
2022-12-10T17:28:04.720Z,0.80
2022-12-10T17:30:31.350Z,0.86
2022-12-10T17:32:57.993Z,0.79
2022-12-10T17:35:24.953Z,0.78
2022-12-10T17:37:54.118Z,0.72
2022-12-10T17:40:23.593Z,0.76
2022-12-10T17:42:51.043Z,0.72
2022-12-10T17:45:22.559Z,0.71
2022-12-10T17:47:49.873Z,0.61
2022-12-10T17:50:33.905Z,0.66
2022-12-10T17:53:01.695Z,0.68
2022-12-10T17:55:29.109Z,0.66
2022-12-10T17:57:59.137Z,0.50
2022-12-10T18:00:31.127Z,0.55
2022-12-10T18:02:57.802Z,0.57
2022-12-10T18:05:24.857Z,0.50
2022-12-10T18:07:51.887Z,0.42
2022-12-10T18:10:30.998Z,0.39
2022-12-10T18:12:57.978Z,0.25
2022-12-10T18:15:26.499Z,0.23
2022-12-10T18:17:53.735Z,0.31
2022-12-10T18:20:24.904Z,0.21
2022-12-10T18:22:52.897Z,0.21
2022-12-10T18:25:22.859Z,0.17
2022-12-10T18:27:51.178Z,0.12
2022-12-10T18:30:20.962Z,0.20
2022-12-10T18:32:47.924Z,0.08
2022-12-10T18:35:14.916Z,0.07
2022-12-10T18:37:42.235Z,0.08
2022-12-10T18:40:15.619Z,-0.01
2022-12-10T18:42:47.097Z,0.00
2022-12-10T18:45:14.732Z,-0.06
2022-12-10T18:47:42.116Z,-0.03
2022-12-10T18:50:29.668Z,-0.20
2022-12-10T18:52:56.873Z,-0.15
2022-12-10T18:55:24.758Z,-0.11
2022-12-10T18:58:04.458Z,-0.20
2022-12-10T19:00:35.544Z,-0.13
2022-12-10T19:03:03.880Z,-0.25
2022-12-10T19:05:31.306Z,-0.30
2022-12-10T19:07:57.839Z,-0.29
2022-12-10T19:10:26.139Z,-0.30
2022-12-10T19:12:53.362Z,-0.36
2022-12-10T19:15:22.054Z,-0.45
2022-12-10T19:17:49.491Z,-0.32
2022-12-10T19:20:22.878Z,-0.46
2022-12-10T19:22:50.674Z,-0.59
2022-12-10T19:25:17.333Z,-0.68
2022-12-10T19:27:44.416Z,-0.55
2022-12-10T19:30:16.261Z,-0.60
2022-12-10T19:32:43.657Z,-0.63
2022-12-10T19:35:16.220Z,-0.58
2022-12-10T19:37:44.884Z,-0.63
2022-12-10T19:40:19.213Z,-0.70
2022-12-10T19:42:49.352Z,-0.71
2022-12-10T19:45:17.405Z,-0.69
2022-12-10T19:47:44.856Z,-0.75
2022-12-10T19:50:17.639Z,-0.82
2022-12-10T19:52:45.446Z,-0.91
2022-12-10T19:55:16.722Z,-0.93
2022-12-10T19:57:44.501Z,-0.98
2022-12-10T20:00:23.301Z,-0.95
2022-12-10T20:02:51.119Z,-1.02
2022-12-10T20:05:18.409Z,-1.02
2022-12-10T20:07:46.532Z,-1.09
2022-12-10T20:10:19.234Z,-1.04
2022-12-10T20:12:45.922Z,-1.09
2022-12-10T20:15:13.282Z,-1.18
2022-12-10T20:17:40.692Z,-1.18
2022-12-10T20:20:07.992Z,-1.09
2022-12-10T20:22:34.855Z,-1.20
2022-12-10T20:25:01.883Z,-1.21
2022-12-10T20:27:28.307Z,-1.17
2022-12-10T20:29:55.373Z,-1.31
2022-12-10T20:32:22.358Z,-1.40
2022-12-10T20:34:48.846Z,-1.39
2022-12-10T20:37:15.587Z,-1.34
2022-12-10T20:39:46.589Z,-1.39
2022-12-10T20:42:20.085Z,-1.45
2022-12-10T20:44:46.470Z,-1.46
2022-12-10T20:47:13.337Z,-1.47
2022-12-10T20:49:40.518Z,-1.40
2022-12-10T20:52:07.085Z,-1.40
2022-12-10T20:54:34.225Z,-1.38
2022-12-10T20:57:00.763Z,-1.51
2022-12-10T20:59:31.214Z,-1.54
2022-12-10T21:01:58.139Z,-1.68
2022-12-10T21:04:25.343Z,-1.68
2022-12-10T21:06:52.127Z,-1.63
2022-12-10T21:09:18.672Z,-1.71
2022-12-10T21:11:45.653Z,-1.73
2022-12-10T21:14:50.976Z,-1.72
2022-12-10T21:16:59.296Z,-1.73
2022-12-10T21:19:29.783Z,-1.82
2022-12-10T21:21:56.495Z,-1.83
2022-12-10T21:24:23.235Z,-1.87
2022-12-10T21:26:49.725Z,-1.86
2022-12-10T21:29:17.062Z,-1.84
2022-12-10T21:31:45.053Z,-1.93
2022-12-10T21:34:11.505Z,-1.92
2022-12-10T21:36:38.796Z,-1.86
2022-12-10T21:39:05.645Z,-1.92
2022-12-10T21:41:50.889Z,-1.90
2022-12-10T21:44:17.450Z,-1.91
2022-12-10T21:46:44.372Z,-1.94
2022-12-10T21:49:12.211Z,-1.98
2022-12-10T21:51:40.357Z,-1.93
2022-12-10T21:54:08.410Z,-1.99
2022-12-10T21:56:35.566Z,-1.97
2022-12-10T21:59:02.508Z,-1.90
2022-12-10T22:01:29.051Z,-1.88
2022-12-10T22:03:55.549Z,-1.97
2022-12-10T22:06:28.368Z,-2.05
2022-12-10T22:08:55.062Z,-2.17
2022-12-10T22:11:21.515Z,-2.12
2022-12-10T22:13:48.477Z,-2.14
2022-12-10T22:16:15.016Z,-2.11
2022-12-10T22:18:41.619Z,-2.28
2022-12-10T22:21:09.061Z,-2.13
2022-12-10T22:23:35.672Z,-2.12
2022-12-10T22:26:08.683Z,-2.16
2022-12-10T22:28:35.128Z,-2.36
2022-12-10T22:31:06.845Z,-2.22
2022-12-10T22:33:33.841Z,-2.29
2022-12-10T22:36:00.361Z,-2.34
2022-12-10T22:38:27.017Z,-2.33
2022-12-10T22:40:53.831Z,-2.31
2022-12-10T22:43:49.166Z,-2.28
2022-12-10T22:46:07.077Z,-2.23
2022-12-10T22:48:33.720Z,-2.31
2022-12-10T22:51:02.457Z,-2.32
2022-12-10T22:53:30.008Z,-2.23
2022-12-10T22:55:58.479Z,-2.29
2022-12-10T22:58:26.050Z,-2.34
2022-12-10T23:00:52.748Z,-2.37
2022-12-10T23:03:19.465Z,-2.39
2022-12-10T23:05:48.043Z,-2.33
2022-12-10T23:08:15.109Z,-2.38
2022-12-10T23:10:41.841Z,-2.40
2022-12-10T23:13:10.914Z,-2.46
2022-12-10T23:15:40.556Z,-2.49
2022-12-10T23:18:07.661Z,-2.47
2022-12-10T23:20:35.468Z,-2.43
2022-12-10T23:23:02.459Z,-2.51
2022-12-10T23:25:29.586Z,-2.47
2022-12-10T23:27:56.540Z,-2.59
2022-12-10T23:30:23.208Z,-2.50
2022-12-10T23:32:50.339Z,-2.53
2022-12-10T23:35:17.012Z,-2.59
2022-12-10T23:37:43.950Z,-2.57
2022-12-10T23:40:10.969Z,-2.59
2022-12-10T23:42:37.447Z,-2.60
2022-12-10T23:45:04.423Z,-2.63
2022-12-10T23:47:31.411Z,-2.67
2022-12-10T23:49:58.249Z,-2.63
2022-12-10T23:52:24.928Z,-2.82
2022-12-10T23:54:51.487Z,-2.73
2022-12-10T23:57:18.721Z,-2.72
2022-12-10T23:59:45.115Z,-2.68
